KGGW/GGW METAR and TAF weather

Enter ICAO airport designator
Station Type Date Time Source
KGGW METAR 2020/11/25 23:03 UTC NOAA

KGGW 252303Z AUTO 32016KT 10SM BKN016 01/M02 A2973 RMK AO2 T00111022


Station Type Date Time Source
KGGW Decoded METAR 2020/11/25 23:03 UTC NOAA

GLASGOW INTERNATIONAL AIRPORT , MT, United States (KGGW) 48-13N 106-37W 693M
Nov 25, 2020 - 06:03 PM EST / 2020.11.25 2303 UTC
Wind: from the NW (320 degrees) at 18 MPH (16 KT):0
Visibility: 10 mile(s):0
Sky conditions: mostly cloudy
Temperature: 34.0 F (1.1 C)
Windchill: 23 F (-5 C):1
Dew Point: 28.0 F (-2.2 C)
Relative Humidity: 78%
Pressure (altimeter): 29.73 in. Hg (1006 hPa)
ob: KGGW 252303Z AUTO 32016KT 10SM BKN016 01/M02 A2973 RMK AO2 T00111022
cycle: 23

Station Type Date Time Source
KGGW TAF 2020/11/25 18:24 UTC NOAA

TAF KGGW 251722Z 2518/2618 VRB04KT P6SM SCT060 OVC120 WS020/28035KT
FM252000 26007KT P6SM SCT050 OVC100
FM261200 VRB05KT P6SM BKN035 WS020/29035KT
FM261700 29011KT P6SM SCT090

Example: see airport list